sensor_id;sensor_type;location;lat;lon;timestamp;P1;durP1;ratioP1;P2;durP2;ratioP2
15841;SDS011;8021;48.022;11.812;2023-09-19T00:01:46;0.20;;;0.20;;
15841;SDS011;8021;48.022;11.812;2023-09-19T00:04:15;0.30;;;0.25;;
15841;SDS011;8021;48.022;11.812;2023-09-19T00:06:45;0.25;;;0.20;;
15841;SDS011;8021;48.022;11.812;2023-09-19T00:09:13;0.20;;;0.20;;
15841;SDS011;8021;48.022;11.812;2023-09-19T00:11:42;0.30;;;0.20;;
15841;SDS011;8021;48.022;11.812;2023-09-19T00:14:10;0.20;;;0.20;;
15841;SDS011;8021;48.022;11.812;2023-09-19T00:16:40;0.20;;;0.20;;
15841;SDS011;8021;48.022;11.812;2023-09-19T00:19:08;0.30;;;0.28;;
15841;SDS011;8021;48.022;11.812;2023-09-19T00:21:37;0.20;;;0.20;;
15841;SDS011;8021;48.022;11.812;2023-09-19T00:24:05;0.30;;;0.20;;
15841;SDS011;8021;48.022;11.812;2023-09-19T00:26:32;0.20;;;0.20;;
15841;SDS011;8021;48.022;11.812;2023-09-19T00:29:00;0.30;;;0.30;;
15841;SDS011;8021;48.022;11.812;2023-09-19T00:31:40;0.30;;;0.25;;
15841;SDS011;8021;48.022;11.812;2023-09-19T00:34:10;0.30;;;0.20;;
15841;SDS011;8021;48.022;11.812;2023-09-19T00:36:39;0.30;;;0.30;;
15841;SDS011;8021;48.022;11.812;2023-09-19T00:39:06;0.30;;;0.20;;
15841;SDS011;8021;48.022;11.812;2023-09-19T00:41:34;0.30;;;0.30;;
15841;SDS011;8021;48.022;11.812;2023-09-19T00:44:03;0.20;;;0.20;;
15841;SDS011;8021;48.022;11.812;2023-09-19T00:46:31;0.20;;;0.20;;
15841;SDS011;8021;48.022;11.812;2023-09-19T00:48:59;0.30;;;0.25;;
15841;SDS011;8021;48.022;11.812;2023-09-19T00:51:28;0.30;;;0.30;;
15841;SDS011;8021;48.022;11.812;2023-09-19T00:53:57;0.30;;;0.20;;
15841;SDS011;8021;48.022;11.812;2023-09-19T00:56:26;0.30;;;0.20;;
15841;SDS011;8021;48.022;11.812;2023-09-19T00:58:53;0.30;;;0.30;;
15841;SDS011;8021;48.022;11.812;2023-09-19T01:01:21;0.20;;;0.20;;
15841;SDS011;8021;48.022;11.812;2023-09-19T01:03:49;0.20;;;0.20;;
15841;SDS011;8021;48.022;11.812;2023-09-19T01:06:17;0.20;;;0.20;;
15841;SDS011;8021;48.022;11.812;2023-09-19T01:08:45;0.20;;;0.20;;
15841;SDS011;8021;48.022;11.812;2023-09-19T01:11:14;0.20;;;0.20;;
15841;SDS011;8021;48.022;11.812;2023-09-19T01:13:47;0.25;;;0.20;;
15841;SDS011;8021;48.022;11.812;2023-09-19T01:16:19;0.20;;;0.20;;
15841;SDS011;8021;48.022;11.812;2023-09-19T01:18:49;0.30;;;0.20;;
15841;SDS011;8021;48.022;11.812;2023-09-19T01:21:21;0.22;;;0.20;;
15841;SDS011;8021;48.022;11.812;2023-09-19T01:24:01;0.20;;;0.20;;
15841;SDS011;8021;48.022;11.812;2023-09-19T01:26:38;0.20;;;0.20;;
15841;SDS011;8021;48.022;11.812;2023-09-19T01:29:14;0.30;;;0.20;;
15841;SDS011;8021;48.022;11.812;2023-09-19T01:31:47;0.20;;;0.20;;
15841;SDS011;8021;48.022;11.812;2023-09-19T01:34:15;0.30;;;0.20;;
15841;SDS011;8021;48.022;11.812;2023-09-19T01:36:44;0.20;;;0.20;;
15841;SDS011;8021;48.022;11.812;2023-09-19T01:39:12;0.28;;;0.20;;
15841;SDS011;8021;48.022;11.812;2023-09-19T01:41:45;0.20;;;0.20;;
15841;SDS011;8021;48.022;11.812;2023-09-19T01:44:18;0.20;;;0.20;;
15841;SDS011;8021;48.022;11.812;2023-09-19T01:46:48;0.20;;;0.20;;
15841;SDS011;8021;48.022;11.812;2023-09-19T01:49:18;0.20;;;0.20;;
15841;SDS011;8021;48.022;11.812;2023-09-19T01:51:49;0.20;;;0.20;;
15841;SDS011;8021;48.022;11.812;2023-09-19T01:54:21;0.20;;;0.20;;
15841;SDS011;8021;48.022;11.812;2023-09-19T01:56:53;0.30;;;0.20;;
15841;SDS011;8021;48.022;11.812;2023-09-19T01:59:24;0.20;;;0.20;;
15841;SDS011;8021;48.022;11.812;2023-09-19T02:01:55;0.30;;;0.22;;
15841;SDS011;8021;48.022;11.812;2023-09-19T02:04:23;0.28;;;0.20;;
15841;SDS011;8021;48.022;11.812;2023-09-19T02:06:51;0.30;;;0.30;;
15841;SDS011;8021;48.022;11.812;2023-09-19T02:09:18;0.30;;;0.20;;
15841;SDS011;8021;48.022;11.812;2023-09-19T02:11:46;0.20;;;0.20;;
15841;SDS011;8021;48.022;11.812;2023-09-19T02:14:13;0.30;;;0.20;;
15841;SDS011;8021;48.022;11.812;2023-09-19T02:16:41;0.20;;;0.20;;
15841;SDS011;8021;48.022;11.812;2023-09-19T02:19:10;0.20;;;0.20;;
15841;SDS011;8021;48.022;11.812;2023-09-19T02:21:38;0.20;;;0.20;;
15841;SDS011;8021;48.022;11.812;2023-09-19T02:24:06;0.20;;;0.20;;
15841;SDS011;8021;48.022;11.812;2023-09-19T02:26:36;0.20;;;0.20;;
15841;SDS011;8021;48.022;11.812;2023-09-19T02:29:05;0.20;;;0.20;;
15841;SDS011;8021;48.022;11.812;2023-09-19T02:31:34;0.30;;;0.30;;
15841;SDS011;8021;48.022;11.812;2023-09-19T02:34:01;0.20;;;0.20;;
15841;SDS011;8021;48.022;11.812;2023-09-19T02:36:30;0.20;;;0.20;;
15841;SDS011;8021;48.022;11.812;2023-09-19T02:38:58;0.30;;;0.22;;
15841;SDS011;8021;48.022;11.812;2023-09-19T02:41:26;0.20;;;0.20;;
15841;SDS011;8021;48.022;11.812;2023-09-19T02:43:55;0.20;;;0.20;;
15841;SDS011;8021;48.022;11.812;2023-09-19T02:46:24;0.28;;;0.22;;
15841;SDS011;8021;48.022;11.812;2023-09-19T02:48:52;0.20;;;0.20;;
15841;SDS011;8021;48.022;11.812;2023-09-19T02:51:21;0.30;;;0.20;;
15841;SDS011;8021;48.022;11.812;2023-09-19T02:53:50;0.22;;;0.22;;
15841;SDS011;8021;48.022;11.812;2023-09-19T02:56:18;0.20;;;0.20;;
15841;SDS011;8021;48.022;11.812;2023-09-19T02:58:45;0.25;;;0.20;;
15841;SDS011;8021;48.022;11.812;2023-09-19T03:01:14;0.20;;;0.10;;
15841;SDS011;8021;48.022;11.812;2023-09-19T03:03:42;0.30;;;0.20;;
15841;SDS011;8021;48.022;11.812;2023-09-19T03:06:11;0.20;;;0.20;;
15841;SDS011;8021;48.022;11.812;2023-09-19T03:08:40;0.20;;;0.20;;
15841;SDS011;8021;48.022;11.812;2023-09-19T03:11:10;0.28;;;0.20;;
15841;SDS011;8021;48.022;11.812;2023-09-19T03:13:40;0.30;;;0.20;;
15841;SDS011;8021;48.022;11.812;2023-09-19T03:16:09;0.30;;;0.20;;
15841;SDS011;8021;48.022;11.812;2023-09-19T03:18:37;0.20;;;0.20;;
15841;SDS011;8021;48.022;11.812;2023-09-19T03:21:04;0.20;;;0.20;;
15841;SDS011;8021;48.022;11.812;2023-09-19T03:23:32;0.30;;;0.20;;
15841;SDS011;8021;48.022;11.812;2023-09-19T03:26:00;0.30;;;0.20;;
15841;SDS011;8021;48.022;11.812;2023-09-19T03:28:29;0.20;;;0.20;;
15841;SDS011;8021;48.022;11.812;2023-09-19T03:30:58;0.30;;;0.30;;
15841;SDS011;8021;48.022;11.812;2023-09-19T03:33:27;0.30;;;0.28;;
15841;SDS011;8021;48.022;11.812;2023-09-19T03:35:58;0.30;;;0.30;;
15841;SDS011;8021;48.022;11.812;2023-09-19T03:38:27;0.20;;;0.20;;
15841;SDS011;8021;48.022;11.812;2023-09-19T03:40:55;0.20;;;0.20;;
15841;SDS011;8021;48.022;11.812;2023-09-19T03:43:22;0.28;;;0.20;;
15841;SDS011;8021;48.022;11.812;2023-09-19T03:45:52;0.20;;;0.20;;
15841;SDS011;8021;48.022;11.812;2023-09-19T03:48:22;0.30;;;0.30;;
15841;SDS011;8021;48.022;11.812;2023-09-19T03:50:50;0.20;;;0.20;;
15841;SDS011;8021;48.022;11.812;2023-09-19T03:53:18;0.22;;;0.20;;
15841;SDS011;8021;48.022;11.812;2023-09-19T03:55:46;0.30;;;0.20;;
15841;SDS011;8021;48.022;11.812;2023-09-19T03:58:16;0.20;;;0.20;;
15841;SDS011;8021;48.022;11.812;2023-09-19T04:00:43;0.20;;;0.20;;
15841;SDS011;8021;48.022;11.812;2023-09-19T04:03:12;0.30;;;0.20;;
15841;SDS011;8021;48.022;11.812;2023-09-19T04:05:46;0.20;;;0.20;;
15841;SDS011;8021;48.022;11.812;2023-09-19T04:08:14;0.20;;;0.10;;
15841;SDS011;8021;48.022;11.812;2023-09-19T04:10:42;0.30;;;0.30;;
15841;SDS011;8021;48.022;11.812;2023-09-19T04:13:09;0.20;;;0.20;;
15841;SDS011;8021;48.022;11.812;2023-09-19T04:15:37;0.30;;;0.30;;
15841;SDS011;8021;48.022;11.812;2023-09-19T04:18:07;0.30;;;0.20;;
15841;SDS011;8021;48.022;11.812;2023-09-19T04:20:36;0.20;;;0.20;;
15841;SDS011;8021;48.022;11.812;2023-09-19T04:23:03;0.20;;;0.20;;
15841;SDS011;8021;48.022;11.812;2023-09-19T04:25:31;0.20;;;0.20;;
15841;SDS011;8021;48.022;11.812;2023-09-19T04:27:59;0.20;;;0.20;;
15841;SDS011;8021;48.022;11.812;2023-09-19T04:30:26;0.20;;;0.20;;
15841;SDS011;8021;48.022;11.812;2023-09-19T04:32:54;0.20;;;0.20;;
15841;SDS011;8021;48.022;11.812;2023-09-19T04:35:21;0.30;;;0.20;;
15841;SDS011;8021;48.022;11.812;2023-09-19T04:37:50;0.30;;;0.20;;
15841;SDS011;8021;48.022;11.812;2023-09-19T04:40:18;0.30;;;0.20;;
15841;SDS011;8021;48.022;11.812;2023-09-19T04:42:52;0.30;;;0.25;;
15841;SDS011;8021;48.022;11.812;2023-09-19T04:45:21;0.30;;;0.30;;
15841;SDS011;8021;48.022;11.812;2023-09-19T04:47:49;0.30;;;0.20;;
15841;SDS011;8021;48.022;11.812;2023-09-19T04:50:16;0.30;;;0.25;;
15841;SDS011;8021;48.022;11.812;2023-09-19T04:52:44;0.30;;;0.30;;
15841;SDS011;8021;48.022;11.812;2023-09-19T04:55:18;0.20;;;0.20;;
15841;SDS011;8021;48.022;11.812;2023-09-19T04:57:47;0.28;;;0.20;;
15841;SDS011;8021;48.022;11.812;2023-09-19T05:00:15;0.30;;;0.20;;
15841;SDS011;8021;48.022;11.812;2023-09-19T05:02:46;0.20;;;0.20;;
15841;SDS011;8021;48.022;11.812;2023-09-19T05:05:13;0.20;;;0.20;;
15841;SDS011;8021;48.022;11.812;2023-09-19T05:07:43;0.20;;;0.20;;
15841;SDS011;8021;48.022;11.812;2023-09-19T05:10:11;0.30;;;0.20;;
15841;SDS011;8021;48.022;11.812;2023-09-19T05:12:41;0.30;;;0.22;;
15841;SDS011;8021;48.022;11.812;2023-09-19T05:15:11;0.20;;;0.20;;
15841;SDS011;8021;48.022;11.812;2023-09-19T05:17:38;0.20;;;0.20;;
15841;SDS011;8021;48.022;11.812;2023-09-19T05:20:07;0.28;;;0.28;;
15841;SDS011;8021;48.022;11.812;2023-09-19T05:22:50;0.20;;;0.20;;
15841;SDS011;8021;48.022;11.812;2023-09-19T05:25:24;0.30;;;0.20;;
15841;SDS011;8021;48.022;11.812;2023-09-19T05:27:54;0.30;;;0.20;;
15841;SDS011;8021;48.022;11.812;2023-09-19T05:30:21;0.28;;;0.20;;
15841;SDS011;8021;48.022;11.812;2023-09-19T05:32:49;0.30;;;0.20;;
15841;SDS011;8021;48.022;11.812;2023-09-19T05:35:17;0.28;;;0.28;;
15841;SDS011;8021;48.022;11.812;2023-09-19T05:37:45;0.22;;;0.22;;
15841;SDS011;8021;48.022;11.812;2023-09-19T05:40:13;0.20;;;0.20;;
15841;SDS011;8021;48.022;11.812;2023-09-19T05:42:42;0.20;;;0.20;;
15841;SDS011;8021;48.022;11.812;2023-09-19T05:45:11;0.20;;;0.20;;
15841;SDS011;8021;48.022;11.812;2023-09-19T05:47:39;0.25;;;0.20;;
15841;SDS011;8021;48.022;11.812;2023-09-19T05:50:12;0.20;;;0.20;;
15841;SDS011;8021;48.022;11.812;2023-09-19T05:52:41;0.20;;;0.20;;
15841;SDS011;8021;48.022;11.812;2023-09-19T05:55:09;0.20;;;0.20;;
15841;SDS011;8021;48.022;11.812;2023-09-19T05:57:37;0.28;;;0.28;;
15841;SDS011;8021;48.022;11.812;2023-09-19T06:00:06;0.20;;;0.20;;
15841;SDS011;8021;48.022;11.812;2023-09-19T06:02:38;0.20;;;0.20;;
15841;SDS011;8021;48.022;11.812;2023-09-19T06:05:06;0.30;;;0.30;;
15841;SDS011;8021;48.022;11.812;2023-09-19T06:07:36;0.20;;;0.20;;
15841;SDS011;8021;48.022;11.812;2023-09-19T06:10:04;0.20;;;0.20;;
15841;SDS011;8021;48.022;11.812;2023-09-19T06:12:33;0.20;;;0.20;;
15841;SDS011;8021;48.022;11.812;2023-09-19T06:15:03;0.28;;;0.20;;
15841;SDS011;8021;48.022;11.812;2023-09-19T06:17:34;0.20;;;0.17;;
15841;SDS011;8021;48.022;11.812;2023-09-19T06:20:06;0.20;;;0.20;;
15841;SDS011;8021;48.022;11.812;2023-09-19T06:22:39;0.28;;;0.28;;
15841;SDS011;8021;48.022;11.812;2023-09-19T06:25:08;0.30;;;0.30;;
15841;SDS011;8021;48.022;11.812;2023-09-19T06:27:37;0.20;;;0.20;;
15841;SDS011;8021;48.022;11.812;2023-09-19T06:30:08;0.20;;;0.20;;
15841;SDS011;8021;48.022;11.812;2023-09-19T06:32:35;0.20;;;0.20;;
15841;SDS011;8021;48.022;11.812;2023-09-19T06:35:03;0.20;;;0.20;;
15841;SDS011;8021;48.022;11.812;2023-09-19T06:37:35;0.10;;;0.10;;
15841;SDS011;8021;48.022;11.812;2023-09-19T06:40:05;0.10;;;0.10;;
15841;SDS011;8021;48.022;11.812;2023-09-19T06:42:33;0.10;;;0.10;;
15841;SDS011;8021;48.022;11.812;2023-09-19T06:45:01;0.10;;;0.10;;
15841;SDS011;8021;48.022;11.812;2023-09-19T06:47:28;0.10;;;0.10;;
15841;SDS011;8021;48.022;11.812;2023-09-19T06:49:56;0.10;;;0.10;;
15841;SDS011;8021;48.022;11.812;2023-09-19T06:52:23;0.10;;;0.10;;
15841;SDS011;8021;48.022;11.812;2023-09-19T06:54:53;0.10;;;0.10;;
15841;SDS011;8021;48.022;11.812;2023-09-19T06:57:21;0.10;;;0.10;;
15841;SDS011;8021;48.022;11.812;2023-09-19T06:59:48;0.10;;;0.10;;
15841;SDS011;8021;48.022;11.812;2023-09-19T07:02:16;0.10;;;0.10;;
15841;SDS011;8021;48.022;11.812;2023-09-19T07:04:44;0.10;;;0.10;;
15841;SDS011;8021;48.022;11.812;2023-09-19T07:07:12;0.10;;;0.10;;
15841;SDS011;8021;48.022;11.812;2023-09-19T07:09:40;0.08;;;0.08;;
15841;SDS011;8021;48.022;11.812;2023-09-19T07:12:09;0.10;;;0.10;;
15841;SDS011;8021;48.022;11.812;2023-09-19T07:14:38;0.10;;;0.10;;
15841;SDS011;8021;48.022;11.812;2023-09-19T07:17:05;0.10;;;0.10;;
15841;SDS011;8021;48.022;11.812;2023-09-19T07:19:34;0.10;;;0.10;;
15841;SDS011;8021;48.022;11.812;2023-09-19T07:22:01;0.00;;;0.00;;
15841;SDS011;8021;48.022;11.812;2023-09-19T07:24:29;0.10;;;0.10;;
15841;SDS011;8021;48.022;11.812;2023-09-19T07:26:57;0.00;;;0.00;;
15841;SDS011;8021;48.022;11.812;2023-09-19T07:29:26;0.00;;;0.00;;
15841;SDS011;8021;48.022;11.812;2023-09-19T07:31:53;0.00;;;0.00;;
15841;SDS011;8021;48.022;11.812;2023-09-19T07:34:21;0.00;;;0.00;;
15841;SDS011;8021;48.022;11.812;2023-09-19T07:36:49;0.00;;;0.00;;
15841;SDS011;8021;48.022;11.812;2023-09-19T07:39:17;0.10;;;0.10;;
15841;SDS011;8021;48.022;11.812;2023-09-19T07:41:48;0.03;;;0.00;;
15841;SDS011;8021;48.022;11.812;2023-09-19T07:44:16;0.10;;;0.10;;
15841;SDS011;8021;48.022;11.812;2023-09-19T07:46:45;0.10;;;0.10;;
15841;SDS011;8021;48.022;11.812;2023-09-19T07:49:13;0.10;;;0.10;;
15841;SDS011;8021;48.022;11.812;2023-09-19T07:51:44;0.10;;;0.10;;
15841;SDS011;8021;48.022;11.812;2023-09-19T07:54:12;0.10;;;0.10;;
15841;SDS011;8021;48.022;11.812;2023-09-19T07:56:40;0.10;;;0.10;;
15841;SDS011;8021;48.022;11.812;2023-09-19T07:59:08;0.10;;;0.10;;
15841;SDS011;8021;48.022;11.812;2023-09-19T08:01:37;0.10;;;0.10;;
15841;SDS011;8021;48.022;11.812;2023-09-19T08:04:07;0.10;;;0.10;;
15841;SDS011;8021;48.022;11.812;2023-09-19T08:06:35;0.20;;;0.20;;
15841;SDS011;8021;48.022;11.812;2023-09-19T08:09:04;0.10;;;0.10;;
15841;SDS011;8021;48.022;11.812;2023-09-19T08:11:34;0.10;;;0.10;;
15841;SDS011;8021;48.022;11.812;2023-09-19T08:14:01;0.10;;;0.10;;
15841;SDS011;8021;48.022;11.812;2023-09-19T08:16:29;0.10;;;0.10;;
15841;SDS011;8021;48.022;11.812;2023-09-19T08:18:56;0.10;;;0.10;;
15841;SDS011;8021;48.022;11.812;2023-09-19T08:21:25;0.08;;;0.08;;
15841;SDS011;8021;48.022;11.812;2023-09-19T08:23:56;0.10;;;0.10;;
15841;SDS011;8021;48.022;11.812;2023-09-19T08:26:24;0.10;;;0.10;;
15841;SDS011;8021;48.022;11.812;2023-09-19T08:28:51;0.10;;;0.10;;
15841;SDS011;8021;48.022;11.812;2023-09-19T08:31:19;0.10;;;0.10;;
15841;SDS011;8021;48.022;11.812;2023-09-19T08:33:47;0.10;;;0.10;;
15841;SDS011;8021;48.022;11.812;2023-09-19T08:36:16;0.10;;;0.08;;
15841;SDS011;8021;48.022;11.812;2023-09-19T08:38:44;0.00;;;0.00;;
15841;SDS011;8021;48.022;11.812;2023-09-19T08:41:12;0.03;;;0.00;;
15841;SDS011;8021;48.022;11.812;2023-09-19T08:43:40;0.00;;;0.00;;
15841;SDS011;8021;48.022;11.812;2023-09-19T08:46:09;0.00;;;0.00;;
15841;SDS011;8021;48.022;11.812;2023-09-19T08:48:39;0.00;;;0.00;;
15841;SDS011;8021;48.022;11.812;2023-09-19T08:51:07;0.00;;;0.00;;
15841;SDS011;8021;48.022;11.812;2023-09-19T08:53:36;0.00;;;0.00;;
15841;SDS011;8021;48.022;11.812;2023-09-19T08:56:08;0.00;;;0.00;;
15841;SDS011;8021;48.022;11.812;2023-09-19T08:58:39;0.00;;;0.00;;
15841;SDS011;8021;48.022;11.812;2023-09-19T09:01:09;0.00;;;0.00;;
15841;SDS011;8021;48.022;11.812;2023-09-19T09:03:38;0.00;;;0.00;;
15841;SDS011;8021;48.022;11.812;2023-09-19T09:06:07;0.00;;;0.00;;
15841;SDS011;8021;48.022;11.812;2023-09-19T09:08:37;0.00;;;0.00;;
15841;SDS011;8021;48.022;11.812;2023-09-19T09:11:07;0.00;;;0.00;;
15841;SDS011;8021;48.022;11.812;2023-09-19T09:13:36;0.00;;;0.00;;
15841;SDS011;8021;48.022;11.812;2023-09-19T09:16:04;0.05;;;0.00;;
15841;SDS011;8021;48.022;11.812;2023-09-19T09:18:31;0.00;;;0.00;;
15841;SDS011;8021;48.022;11.812;2023-09-19T09:20:59;0.10;;;0.08;;
15841;SDS011;8021;48.022;11.812;2023-09-19T09:23:26;0.00;;;0.00;;
15841;SDS011;8021;48.022;11.812;2023-09-19T09:25:56;0.10;;;0.10;;
15841;SDS011;8021;48.022;11.812;2023-09-19T09:28:31;0.10;;;0.10;;
15841;SDS011;8021;48.022;11.812;2023-09-19T09:31:00;0.10;;;0.10;;
15841;SDS011;8021;48.022;11.812;2023-09-19T09:33:29;0.10;;;0.10;;
15841;SDS011;8021;48.022;11.812;2023-09-19T09:35:57;0.00;;;0.00;;
15841;SDS011;8021;48.022;11.812;2023-09-19T09:38:27;0.10;;;0.10;;
15841;SDS011;8021;48.022;11.812;2023-09-19T09:40:58;0.10;;;0.10;;
15841;SDS011;8021;48.022;11.812;2023-09-19T09:43:29;0.10;;;0.10;;
15841;SDS011;8021;48.022;11.812;2023-09-19T09:46:09;0.10;;;0.10;;
15841;SDS011;8021;48.022;11.812;2023-09-19T09:49:04;0.10;;;0.10;;
15841;SDS011;8021;48.022;11.812;2023-09-19T09:51:47;0.17;;;0.17;;
15841;SDS011;8021;48.022;11.812;2023-09-19T09:54:23;0.10;;;0.10;;
15841;SDS011;8021;48.022;11.812;2023-09-19T09:56:54;0.20;;;0.20;;
15841;SDS011;8021;48.022;11.812;2023-09-19T10:02:14;0.17;;;0.17;;
15841;SDS011;8021;48.022;11.812;2023-09-19T10:04:47;0.10;;;0.10;;
15841;SDS011;8021;48.022;11.812;2023-09-19T10:07:26;0.20;;;0.20;;
15841;SDS011;8021;48.022;11.812;2023-09-19T10:09:59;0.10;;;0.10;;
15841;SDS011;8021;48.022;11.812;2023-09-19T10:12:38;0.10;;;0.10;;
15841;SDS011;8021;48.022;11.812;2023-09-19T10:15:10;0.10;;;0.10;;
15841;SDS011;8021;48.022;11.812;2023-09-19T10:17:39;0.10;;;0.10;;
15841;SDS011;8021;48.022;11.812;2023-09-19T10:20:12;0.10;;;0.10;;
15841;SDS011;8021;48.022;11.812;2023-09-19T10:22:48;0.17;;;0.17;;
15841;SDS011;8021;48.022;11.812;2023-09-19T10:25:25;0.20;;;0.20;;
15841;SDS011;8021;48.022;11.812;2023-09-19T10:27:55;0.20;;;0.20;;
15841;SDS011;8021;48.022;11.812;2023-09-19T10:30:24;0.10;;;0.10;;
15841;SDS011;8021;48.022;11.812;2023-09-19T10:32:55;0.20;;;0.20;;
15841;SDS011;8021;48.022;11.812;2023-09-19T10:35:24;0.20;;;0.20;;
15841;SDS011;8021;48.022;11.812;2023-09-19T10:37:53;0.20;;;0.20;;
15841;SDS011;8021;48.022;11.812;2023-09-19T10:40:21;0.10;;;0.10;;
15841;SDS011;8021;48.022;11.812;2023-09-19T10:42:53;0.20;;;0.20;;
15841;SDS011;8021;48.022;11.812;2023-09-19T10:45:21;0.10;;;0.10;;
15841;SDS011;8021;48.022;11.812;2023-09-19T10:47:53;0.17;;;0.17;;
15841;SDS011;8021;48.022;11.812;2023-09-19T10:50:22;0.20;;;0.20;;
15841;SDS011;8021;48.022;11.812;2023-09-19T10:52:52;0.10;;;0.10;;
15841;SDS011;8021;48.022;11.812;2023-09-19T10:55:25;0.10;;;0.10;;
15841;SDS011;8021;48.022;11.812;2023-09-19T10:57:54;0.15;;;0.15;;
15841;SDS011;8021;48.022;11.812;2023-09-19T11:00:53;0.10;;;0.10;;
15841;SDS011;8021;48.022;11.812;2023-09-19T11:03:23;0.20;;;0.20;;
15841;SDS011;8021;48.022;11.812;2023-09-19T11:06:00;0.10;;;0.10;;
15841;SDS011;8021;48.022;11.812;2023-09-19T11:08:30;0.10;;;0.10;;
15841;SDS011;8021;48.022;11.812;2023-09-19T11:10:59;0.10;;;0.10;;
15841;SDS011;8021;48.022;11.812;2023-09-19T11:13:30;0.10;;;0.10;;
15841;SDS011;8021;48.022;11.812;2023-09-19T11:16:04;0.10;;;0.10;;
15841;SDS011;8021;48.022;11.812;2023-09-19T11:24:29;0.10;;;0.10;;
15841;SDS011;8021;48.022;11.812;2023-09-19T11:27:13;0.10;;;0.10;;
15841;SDS011;8021;48.022;11.812;2023-09-19T11:29:43;0.10;;;0.10;;
15841;SDS011;8021;48.022;11.812;2023-09-19T11:32:11;0.10;;;0.10;;
15841;SDS011;8021;48.022;11.812;2023-09-19T11:34:44;0.10;;;0.10;;
15841;SDS011;8021;48.022;11.812;2023-09-19T11:40:10;0.10;;;0.10;;
15841;SDS011;8021;48.022;11.812;2023-09-19T11:42:43;0.10;;;0.10;;
15841;SDS011;8021;48.022;11.812;2023-09-19T11:47:56;0.10;;;0.10;;
15841;SDS011;8021;48.022;11.812;2023-09-19T11:50:24;0.10;;;0.10;;
15841;SDS011;8021;48.022;11.812;2023-09-19T11:52:52;0.10;;;0.10;;
15841;SDS011;8021;48.022;11.812;2023-09-19T11:55:23;0.10;;;0.10;;
15841;SDS011;8021;48.022;11.812;2023-09-19T11:57:54;0.10;;;0.10;;
15841;SDS011;8021;48.022;11.812;2023-09-19T12:00:22;0.10;;;0.10;;
15841;SDS011;8021;48.022;11.812;2023-09-19T12:02:50;0.10;;;0.10;;
15841;SDS011;8021;48.022;11.812;2023-09-19T12:05:27;0.10;;;0.10;;
15841;SDS011;8021;48.022;11.812;2023-09-19T12:07:56;0.10;;;0.10;;
15841;SDS011;8021;48.022;11.812;2023-09-19T12:10:24;0.15;;;0.15;;
15841;SDS011;8021;48.022;11.812;2023-09-19T12:12:52;0.10;;;0.10;;
15841;SDS011;8021;48.022;11.812;2023-09-19T12:15:22;0.10;;;0.10;;
15841;SDS011;8021;48.022;11.812;2023-09-19T12:17:54;0.10;;;0.10;;
15841;SDS011;8021;48.022;11.812;2023-09-19T12:20:22;0.20;;;0.20;;
15841;SDS011;8021;48.022;11.812;2023-09-19T12:22:50;0.10;;;0.10;;
15841;SDS011;8021;48.022;11.812;2023-09-19T12:25:18;0.10;;;0.10;;
15841;SDS011;8021;48.022;11.812;2023-09-19T12:27:49;0.10;;;0.10;;
15841;SDS011;8021;48.022;11.812;2023-09-19T12:30:19;0.10;;;0.10;;
15841;SDS011;8021;48.022;11.812;2023-09-19T12:32:53;0.10;;;0.10;;
15841;SDS011;8021;48.022;11.812;2023-09-19T12:35:28;0.10;;;0.10;;
15841;SDS011;8021;48.022;11.812;2023-09-19T12:37:56;0.10;;;0.10;;
15841;SDS011;8021;48.022;11.812;2023-09-19T12:40:24;0.10;;;0.10;;
15841;SDS011;8021;48.022;11.812;2023-09-19T12:42:57;0.10;;;0.10;;
15841;SDS011;8021;48.022;11.812;2023-09-19T12:45:27;0.10;;;0.10;;
15841;SDS011;8021;48.022;11.812;2023-09-19T12:53:24;0.10;;;0.10;;
15841;SDS011;8021;48.022;11.812;2023-09-19T12:55:57;0.10;;;0.10;;
15841;SDS011;8021;48.022;11.812;2023-09-19T12:58:26;0.10;;;0.10;;
15841;SDS011;8021;48.022;11.812;2023-09-19T13:00:56;0.10;;;0.10;;
15841;SDS011;8021;48.022;11.812;2023-09-19T13:03:25;0.10;;;0.10;;
15841;SDS011;8021;48.022;11.812;2023-09-19T13:05:55;0.10;;;0.10;;
15841;SDS011;8021;48.022;11.812;2023-09-19T13:08:24;0.10;;;0.10;;
15841;SDS011;8021;48.022;11.812;2023-09-19T13:11:08;0.10;;;0.10;;
15841;SDS011;8021;48.022;11.812;2023-09-19T13:13:38;0.10;;;0.10;;
15841;SDS011;8021;48.022;11.812;2023-09-19T13:16:08;0.10;;;0.10;;
15841;SDS011;8021;48.022;11.812;2023-09-19T13:18:45;0.10;;;0.10;;
15841;SDS011;8021;48.022;11.812;2023-09-19T13:21:13;0.10;;;0.10;;
15841;SDS011;8021;48.022;11.812;2023-09-19T13:23:50;0.20;;;0.20;;
15841;SDS011;8021;48.022;11.812;2023-09-19T13:26:17;0.10;;;0.10;;
15841;SDS011;8021;48.022;11.812;2023-09-19T13:28:46;0.10;;;0.10;;
15841;SDS011;8021;48.022;11.812;2023-09-19T13:31:16;0.10;;;0.10;;
15841;SDS011;8021;48.022;11.812;2023-09-19T13:33:44;0.10;;;0.10;;
15841;SDS011;8021;48.022;11.812;2023-09-19T13:36:13;0.10;;;0.10;;
15841;SDS011;8021;48.022;11.812;2023-09-19T13:38:40;0.10;;;0.10;;
15841;SDS011;8021;48.022;11.812;2023-09-19T13:41:13;0.10;;;0.10;;
15841;SDS011;8021;48.022;11.812;2023-09-19T13:43:40;0.10;;;0.10;;
15841;SDS011;8021;48.022;11.812;2023-09-19T13:46:09;0.10;;;0.10;;
15841;SDS011;8021;48.022;11.812;2023-09-19T13:48:41;0.10;;;0.10;;
15841;SDS011;8021;48.022;11.812;2023-09-19T13:51:09;0.10;;;0.10;;
15841;SDS011;8021;48.022;11.812;2023-09-19T13:53:37;0.10;;;0.10;;
15841;SDS011;8021;48.022;11.812;2023-09-19T13:56:04;0.20;;;0.20;;
15841;SDS011;8021;48.022;11.812;2023-09-19T13:58:33;0.10;;;0.10;;
15841;SDS011;8021;48.022;11.812;2023-09-19T14:01:00;0.10;;;0.10;;
15841;SDS011;8021;48.022;11.812;2023-09-19T14:03:30;0.10;;;0.10;;
15841;SDS011;8021;48.022;11.812;2023-09-19T14:05:58;0.10;;;0.10;;
15841;SDS011;8021;48.022;11.812;2023-09-19T14:08:25;0.10;;;0.10;;
15841;SDS011;8021;48.022;11.812;2023-09-19T14:10:53;0.10;;;0.10;;
15841;SDS011;8021;48.022;11.812;2023-09-19T14:13:20;0.10;;;0.10;;
15841;SDS011;8021;48.022;11.812;2023-09-19T14:15:48;0.10;;;0.10;;
15841;SDS011;8021;48.022;11.812;2023-09-19T14:18:15;0.10;;;0.10;;
15841;SDS011;8021;48.022;11.812;2023-09-19T14:20:46;0.10;;;0.10;;
15841;SDS011;8021;48.022;11.812;2023-09-19T14:23:14;0.10;;;0.10;;
15841;SDS011;8021;48.022;11.812;2023-09-19T14:25:41;0.10;;;0.10;;
15841;SDS011;8021;48.022;11.812;2023-09-19T14:28:09;0.10;;;0.10;;
15841;SDS011;8021;48.022;11.812;2023-09-19T14:30:37;0.10;;;0.10;;
15841;SDS011;8021;48.022;11.812;2023-09-19T14:33:04;0.10;;;0.10;;
15841;SDS011;8021;48.022;11.812;2023-09-19T14:35:32;0.10;;;0.10;;
15841;SDS011;8021;48.022;11.812;2023-09-19T14:38:01;0.10;;;0.10;;
15841;SDS011;8021;48.022;11.812;2023-09-19T14:40:28;0.20;;;0.10;;
15841;SDS011;8021;48.022;11.812;2023-09-19T14:42:57;0.10;;;0.10;;
15841;SDS011;8021;48.022;11.812;2023-09-19T14:45:24;0.10;;;0.10;;
15841;SDS011;8021;48.022;11.812;2023-09-19T14:47:53;0.10;;;0.10;;
15841;SDS011;8021;48.022;11.812;2023-09-19T14:50:21;0.10;;;0.10;;
15841;SDS011;8021;48.022;11.812;2023-09-19T14:52:49;0.10;;;0.10;;
15841;SDS011;8021;48.022;11.812;2023-09-19T14:55:19;0.10;;;0.10;;
15841;SDS011;8021;48.022;11.812;2023-09-19T14:57:48;0.10;;;0.10;;
15841;SDS011;8021;48.022;11.812;2023-09-19T15:00:17;0.10;;;0.10;;
15841;SDS011;8021;48.022;11.812;2023-09-19T15:02:47;0.10;;;0.10;;
15841;SDS011;8021;48.022;11.812;2023-09-19T15:05:16;0.10;;;0.10;;
15841;SDS011;8021;48.022;11.812;2023-09-19T15:07:46;0.10;;;0.10;;
15841;SDS011;8021;48.022;11.812;2023-09-19T15:10:13;0.10;;;0.10;;
15841;SDS011;8021;48.022;11.812;2023-09-19T15:12:43;0.10;;;0.10;;
15841;SDS011;8021;48.022;11.812;2023-09-19T15:15:11;0.10;;;0.10;;
15841;SDS011;8021;48.022;11.812;2023-09-19T15:17:39;0.10;;;0.10;;
15841;SDS011;8021;48.022;11.812;2023-09-19T15:20:07;0.10;;;0.10;;
15841;SDS011;8021;48.022;11.812;2023-09-19T15:22:35;0.10;;;0.10;;